Arcadia, Indiana
Current Conditions -  °F | °C
As of 3:15 AM on Monday 26 Jan 2015 (Local Time) from KTYQ Reporting Station
Overcast Overcast  
Wind Chill: -12°   Ceiling: 2500
Heat Index: -5°   Visibility: 10mi
Dew Point: -9°   Wind: 15mph
Humidity: 75%   Direction: 10°N
Pressure: 29.91"   Gusts: NA
Location:  40.18°N, 86.02°W
Report Text: KTYQ 260815Z AUTO 01013KT 10SM SCT016 OVC025 M05/M09 A2991 RMK AO2 T10521090
Loading
Personal Weather Stations






























Interactive Weather Map New forecast layout! Learn more

10-Day Weather Forecast

Advertisements
Track Severe Weather on mobile